Decoded Metar for KSGH (SPRINGFIELD MUNI in OH, USA) (IATA:SGH) | Meteo·Mobile Aviation Weather
aviador You're here:

KSGH Decoded Metar

SPRINGFIELD MUNI in OH, USA
Report Time2019-06-26 16:56:00
UTC Time2019-06-26 17:51:00
Flight Rules vfr VFR
Wind250° at 05 kt
W.Decomp.*RWY 24: 4.9 kt HW 1.2 kt RCW
RWY 33: 1.2 kt HW 4.9 kt LCW
Visibility9999 m
Phenomena:N/A
Clouds:N/A
Expected CloudBase > 3,600 ft AGL from Temp-Dew spread
CeilingNone
Temp28°C (ISA +15)
Dew Point19°C (58% RH)
Heat Index29.2°C
QNH1021 hPa
Density Alt2,815 ft
Elevation1,053 ft
Report Wrong Elevation
Raw Report
KSGH 261656Z AUTO 25005KT 10SM CLR 28/19 A3014 RMK AO2 SLP200
T02830194=

Extra information for KSGH:More info

Metar Taf Metar & Taf Last 4 Metars F.Rules Stats Wind Profile Meteogram Temp Stats Airport Information Weather charts Add Link Nearby VenuesMetar ALERT Operation Metar Decoded Social comments

AIRNAV info for KSGH